Time;durP1;ratioP1;P1;durP2;ratioP2;P2;SDS_P1;SDS_P2;PMS_P1;PMS_P2;Temp;Humidity;BMP_temperature;BMP_pressure;BME280_temperature;BME280_humidity;BME280_pressure;Samples;Min_cycle;Max_cycle;Signal;HPM_P1;HPM_P2
2022/01/26 00:00:55;;;;;;;68.18;25.95;;;;;;;;;;5070204;28;20142;-65
2022/01/26 00:06:09;;;;;;;68.45;28.00;;;;;;;;;;5070488;28;20059;-64
2022/01/26 00:08:36;;;;;;;71.43;26.80;;;;;;;;;;5069613;28;20034;-65
2022/01/26 00:11:01;;;;;;;64.00;23.98;;;;;;;;;;5069988;28;20024;-64
2022/01/26 00:13:26;;;;;;;65.85;26.38;;;;;;;;;;5070692;28;20031;-64
2022/01/26 00:15:52;;;;;;;72.68;25.88;;;;;;;;;;5069807;28;20095;-65
2022/01/26 00:18:20;;;;;;;63.90;24.73;;;;;;;;;;5069944;28;20056;-65
2022/01/26 00:20:58;;;;;;;70.10;26.42;;;;;;;;;;5069382;28;20427;-64
2022/01/26 00:26:22;;;;;;;73.65;25.52;;;;;;;;;;5068337;28;20084;-64
2022/01/26 00:39:58;;;;;;;73.95;26.30;;;;;;;;;;5057865;28;20078;-64
2022/01/26 00:42:24;;;;;;;80.65;27.50;;;;;;;;;;5069827;28;20771;-64
2022/01/26 00:44:50;;;;;;;69.85;27.05;;;;;;;;;;5069529;28;20108;-64
2022/01/26 00:47:15;;;;;;;69.45;26.30;;;;;;;;;;5069574;28;20024;-64
2022/01/26 00:49:41;;;;;;;73.05;26.35;;;;;;;;;;5069726;28;20447;-64
2022/01/26 00:52:11;;;;;;;68.82;25.67;;;;;;;;;;5069637;28;20033;-64
2022/01/26 00:54:36;;;;;;;;;;;;;;;;;;5069982;28;20590;-64
2022/01/26 00:57:02;;;;;;;78.65;24.52;;;;;;;;;;5069459;28;20427;-64
2022/01/26 00:59:27;;;;;;;78.72;26.90;;;;;;;;;;5069225;28;20258;-64
2022/01/26 01:01:55;;;;;;;71.43;25.92;;;;;;;;;;5069301;28;20115;-64
2022/01/26 01:04:20;;;;;;;72.30;25.23;;;;;;;;;;5070740;28;20453;-64
2022/01/26 01:06:54;;;;;;;70.15;25.58;;;;;;;;;;5073385;28;20107;-64
2022/01/26 01:09:21;;;;;;;71.00;26.05;;;;;;;;;;5073288;28;20031;-64
2022/01/26 01:11:47;;;;;;;74.93;25.67;;;;;;;;;;5073744;28;20052;-65
2022/01/26 01:14:12;;;;;;;73.25;26.42;;;;;;;;;;5073604;28;20129;-65
2022/01/26 01:16:37;;;;;;;72.50;26.48;;;;;;;;;;5072531;28;20013;-65
2022/01/26 01:19:09;;;;;;;72.53;26.23;;;;;;;;;;5073281;28;20027;-65
2022/01/26 01:25:01;;;;;;;80.13;28.30;;;;;;;;;;5073646;28;20023;-65
2022/01/26 01:29:56;;;;;;;87.88;29.15;;;;;;;;;;5077276;28;20438;-65
2022/01/26 01:32:30;;;;;;;81.57;30.70;;;;;;;;;;5086028;28;20020;-65
2022/01/26 01:34:56;;;;;;;86.05;30.10;;;;;;;;;;5079278;28;20074;-65
2022/01/26 01:37:21;;;;;;;81.38;30.70;;;;;;;;;;5073163;28;20036;-66
2022/01/26 01:39:46;;;;;;;84.13;28.77;;;;;;;;;;5072222;28;20088;-65
2022/01/26 01:42:11;;;;;;;81.28;29.33;;;;;;;;;;5072637;28;20036;-65
2022/01/26 01:44:37;;;;;;;83.32;28.95;;;;;;;;;;5071744;28;20020;-65
2022/01/26 01:47:03;;;;;;;78.22;29.33;;;;;;;;;;5072028;28;20384;-65
2022/01/26 01:49:28;;;;;;;81.10;31.23;;;;;;;;;;5072457;28;20073;-65
2022/01/26 01:52:01;;;;;;;86.68;30.92;;;;;;;;;;5069989;28;20365;-65
2022/01/26 01:54:26;;;;;;;79.43;29.98;;;;;;;;;;5071981;28;20017;-65
2022/01/26 01:56:55;;;;;;;82.75;29.58;;;;;;;;;;5072856;28;20387;-65
2022/01/26 01:59:32;;;;;;;86.25;31.50;;;;;;;;;;5072015;28;20025;-65
2022/01/26 02:01:57;;;;;;;84.15;28.95;;;;;;;;;;5068346;28;20099;-65
2022/01/26 02:04:23;;;;;;;86.88;32.03;;;;;;;;;;5078637;28;20446;-65
2022/01/26 02:06:48;;;;;;;86.97;32.90;;;;;;;;;;5073208;28;20559;-65
2022/01/26 02:09:13;;;;;;;89.22;33.05;;;;;;;;;;5072347;28;20016;-65
2022/01/26 02:11:45;;;;;;;86.50;32.30;;;;;;;;;;5073407;28;20264;-66
2022/01/26 02:14:17;;;;;;;88.43;32.72;;;;;;;;;;5073055;28;20111;-66
2022/01/26 02:16:51;;;;;;;97.07;32.13;;;;;;;;;;5071112;28;20027;-66
2022/01/26 02:49:23;;;;;;;79.53;29.60;;;;;;;;;;5073674;28;20034;-64
2022/01/26 02:57:50;;;;;;;;;;;;;;;;;;5067209;28;20074;-66
2022/01/26 03:00:39;;;;;;;89.43;31.92;;;;;;;;;;5067953;28;19908;-66
2022/01/26 03:03:16;;;;;;;85.47;31.60;;;;;;;;;;5068365;28;20485;-66
2022/01/26 03:05:50;;;;;;;104.65;33.55;;;;;;;;;;5069166;28;20146;-66
2022/01/26 03:08:16;;;;;;;117.90;39.17;;;;;;;;;;5066955;28;20020;-66
2022/01/26 03:10:54;;;;;;;92.57;33.63;;;;;;;;;;5068365;28;20023;-68
2022/01/26 03:13:25;;;;;;;93.65;35.15;;;;;;;;;;5068582;28;20024;-68
2022/01/26 03:15:55;;;;;;;103.93;36.22;;;;;;;;;;5069611;28;20480;-66
2022/01/26 03:20:51;;;;;;;98.03;34.45;;;;;;;;;;5069585;28;20017;-66
2022/01/26 03:32:44;;;;;;;94.85;34.90;;;;;;;;;;5067775;28;20355;-68
2022/01/26 03:34:15;;;;;;;115.22;40.47;;;;;;;;;;5031250;28;20401;-68
2022/01/26 03:37:05;;;;;;;116.95;40.75;;;;;;;;;;5070182;28;20069;-68
2022/01/26 03:39:30;;;;;;;113.15;39.50;;;;;;;;;;5070214;28;20024;-68
2022/01/26 03:42:16;;;;;;;122.72;42.55;;;;;;;;;;5069693;28;20415;-66
2022/01/26 03:44:41;;;;;;;122.90;46.45;;;;;;;;;;5069678;28;20029;-66
2022/01/26 03:47:07;;;;;;;127.85;48.08;;;;;;;;;;5070753;28;20024;-66
2022/01/26 03:49:34;;;;;;;124.75;43.35;;;;;;;;;;5070655;28;20028;-68
2022/01/26 03:51:59;;;;;;;122.45;42.95;;;;;;;;;;5070212;28;20032;-67
2022/01/26 03:54:24;;;;;;;125.82;45.45;;;;;;;;;;5070590;28;20035;-67
2022/01/26 03:56:49;;;;;;;133.95;45.95;;;;;;;;;;5070121;28;20021;-67
2022/01/26 03:59:15;;;;;;;129.25;45.92;;;;;;;;;;5069864;28;20074;-67
2022/01/26 04:01:40;;;;;;;136.45;43.47;;;;;;;;;;5067661;28;20021;-68
2022/01/26 04:04:06;;;;;;;134.02;46.72;;;;;;;;;;5068064;28;20499;-67
2022/01/26 04:06:32;;;;;;;129.60;42.17;;;;;;;;;;5068788;28;20130;-67
2022/01/26 04:08:58;;;;;;;156.07;56.70;;;;;;;;;;5069058;28;20031;-67
2022/01/26 04:13:54;;;;;;;143.88;44.25;;;;;;;;;;5069187;28;20054;-67
2022/01/26 04:16:21;;;;;;;150.63;49.30;;;;;;;;;;5068204;28;20020;-67
2022/01/26 04:18:46;;;;;;;147.85;49.90;;;;;;;;;;5068556;28;20023;-67
2022/01/26 04:21:28;;;;;;;150.25;46.30;;;;;;;;;;5069201;28;20447;-67
2022/01/26 04:24:05;;;;;;;160.63;51.28;;;;;;;;;;5068328;28;20013;-67
2022/01/26 04:26:42;;;;;;;162.90;50.20;;;;;;;;;;5068975;28;20059;-67
2022/01/26 04:29:12;;;;;;;158.35;55.95;;;;;;;;;;5067894;28;20544;-67
2022/01/26 04:31:38;;;;;;;150.23;49.63;;;;;;;;;;5068952;28;20067;-67
2022/01/26 04:34:03;;;;;;;168.38;57.78;;;;;;;;;;5068425;28;20071;-67
2022/01/26 04:36:35;;;;;;;155.38;51.22;;;;;;;;;;5070042;28;20370;-67
2022/01/26 04:39:05;;;;;;;155.25;50.83;;;;;;;;;;5069095;28;20020;-69
2022/01/26 04:41:46;;;;;;;;;;;;;;;;;;5070044;28;20457;-67
2022/01/26 04:44:26;;;;;;;150.25;46.13;;;;;;;;;;5069334;28;20559;-67
2022/01/26 04:46:52;;;;;;;145.00;45.97;;;;;;;;;;5066801;28;20431;-67
2022/01/26 04:49:18;;;;;;;152.18;56.10;;;;;;;;;;5068215;28;20034;-67
2022/01/26 04:51:43;;;;;;;139.27;45.85;;;;;;;;;;5068959;28;20024;-67
2022/01/26 04:54:09;;;;;;;150.18;49.03;;;;;;;;;;5068742;28;20012;-67
2022/01/26 04:56:34;;;;;;;145.20;49.88;;;;;;;;;;5068982;28;20020;-67
2022/01/26 04:58:59;;;;;;;162.35;52.13;;;;;;;;;;5068886;28;20103;-67
2022/01/26 05:01:25;;;;;;;140.25;45.72;;;;;;;;;;5069442;28;20398;-67
2022/01/26 05:03:50;;;;;;;156.63;52.55;;;;;;;;;;5069997;28;20070;-67
2022/01/26 05:06:15;;;;;;;148.45;45.38;;;;;;;;;;5069356;28;20082;-67
2022/01/26 05:08:40;;;;;;;163.32;55.38;;;;;;;;;;5069012;28;20017;-67
2022/01/26 05:11:08;;;;;;;165.25;56.08;;;;;;;;;;5067664;28;20158;-67
2022/01/26 05:13:33;;;;;;;143.25;46.97;;;;;;;;;;5068647;28;20070;-67
2022/01/26 05:15:58;;;;;;;158.10;46.38;;;;;;;;;;5068444;28;20111;-67
2022/01/26 05:18:24;;;;;;;144.75;47.20;;;;;;;;;;5067981;28;20013;-67
2022/01/26 05:20:50;;;;;;;159.82;52.20;;;;;;;;;;5067223;28;20024;-67
2022/01/26 05:23:15;;;;;;;156.30;52.72;;;;;;;;;;5067739;28;20027;-67
2022/01/26 05:25:41;;;;;;;151.80;48.70;;;;;;;;;;5068938;28;20017;-67
2022/01/26 05:28:06;;;;;;;142.93;46.63;;;;;;;;;;5069509;28;20115;-67
2022/01/26 05:30:31;;;;;;;141.50;45.28;;;;;;;;;;5069495;28;20082;-67
2022/01/26 05:32:56;;;;;;;145.88;46.88;;;;;;;;;;5069684;28;20040;-67
2022/01/26 05:35:21;;;;;;;154.15;47.85;;;;;;;;;;5069812;28;20032;-67
2022/01/26 05:37:47;;;;;;;138.73;44.33;;;;;;;;;;5069539;28;20032;-67
2022/01/26 05:40:12;;;;;;;143.90;52.38;;;;;;;;;;5068058;28;20029;-67
2022/01/26 05:42:37;;;;;;;148.77;46.30;;;;;;;;;;5067683;28;20028;-67
2022/01/26 05:45:06;;;;;;;146.50;45.58;;;;;;;;;;5068108;28;20075;-67
2022/01/26 05:47:33;;;;;;;159.82;56.20;;;;;;;;;;5060219;28;20032;-67
2022/01/26 05:49:58;;;;;;;167.65;54.55;;;;;;;;;;5069698;28;20149;-67
2022/01/26 05:52:23;;;;;;;168.23;55.83;;;;;;;;;;5072692;28;20028;-67
2022/01/26 05:54:49;;;;;;;164.52;50.75;;;;;;;;;;5072783;28;20077;-67
2022/01/26 05:57:14;;;;;;;164.73;56.72;;;;;;;;;;5070785;28;20040;-67
2022/01/26 05:59:39;;;;;;;162.57;54.35;;;;;;;;;;5072086;28;20013;-67
2022/01/26 06:02:04;;;;;;;176.10;70.38;;;;;;;;;;5071143;28;20016;-67
2022/01/26 06:04:30;;;;;;;163.68;49.67;;;;;;;;;;5072556;28;20027;-67
2022/01/26 06:06:56;;;;;;;161.45;51.30;;;;;;;;;;5072090;28;20013;-67
2022/01/26 06:09:21;;;;;;;149.77;44.10;;;;;;;;;;5072038;28;20476;-67
2022/01/26 06:11:47;;;;;;;145.90;43.15;;;;;;;;;;5071852;28;20027;-67
2022/01/26 06:14:12;;;;;;;144.95;47.35;;;;;;;;;;5069721;28;20477;-68
2022/01/26 06:16:37;;;;;;;150.82;43.75;;;;;;;;;;5061962;28;20032;-67
2022/01/26 06:19:02;;;;;;;163.25;47.00;;;;;;;;;;5070309;28;20238;-67
2022/01/26 06:21:28;;;;;;;163.88;48.15;;;;;;;;;;5069876;28;20025;-68
2022/01/26 06:23:53;;;;;;;166.10;47.10;;;;;;;;;;5070312;28;20021;-67
2022/01/26 06:26:18;;;;;;;150.75;46.83;;;;;;;;;;5069973;28;20029;-67
2022/01/26 06:28:43;;;;;;;159.05;45.03;;;;;;;;;;5069510;28;20024;-67
2022/01/26 06:31:11;;;;;;;158.65;46.75;;;;;;;;;;5069863;28;20024;-67
2022/01/26 06:33:39;;;;;;;169.52;54.70;;;;;;;;;;5069806;28;20066;-67
2022/01/26 06:36:04;;;;;;;167.27;52.47;;;;;;;;;;5064858;28;20517;-69
2022/01/26 06:38:30;;;;;;;155.88;46.13;;;;;;;;;;5069977;28;20036;-67
2022/01/26 06:40:56;;;;;;;164.48;51.60;;;;;;;;;;5069331;28;20154;-67
2022/01/26 06:43:23;;;;;;;177.00;52.40;;;;;;;;;;5069413;28;20376;-67
2022/01/26 06:45:53;;;;;;;169.18;51.78;;;;;;;;;;5069902;28;20025;-68
2022/01/26 06:50:56;;;;;;;163.60;46.95;;;;;;;;;;5068981;28;20109;-68
2022/01/26 06:53:21;;;;;;;143.38;45.78;;;;;;;;;;5072878;28;20066;-68
2022/01/26 06:55:46;;;;;;;157.07;46.80;;;;;;;;;;5060041;28;20104;-68
2022/01/26 06:58:11;;;;;;;164.07;46.88;;;;;;;;;;5069039;28;20028;-68
2022/01/26 07:00:37;;;;;;;162.93;53.72;;;;;;;;;;5074131;28;20028;-68
2022/01/26 07:03:02;;;;;;;166.40;51.35;;;;;;;;;;5069709;28;20072;-68
2022/01/26 07:05:27;;;;;;;175.88;57.45;;;;;;;;;;5070309;28;20056;-68
2022/01/26 07:07:53;;;;;;;179.85;60.78;;;;;;;;;;5071972;28;20017;-68
2022/01/26 07:10:18;;;;;;;172.45;64.55;;;;;;;;;;5071691;28;20039;-68
2022/01/26 07:12:43;;;;;;;148.38;44.22;;;;;;;;;;5071590;28;20038;-68
2022/01/26 07:23:05;;;;;;;149.48;51.13;;;;;;;;;;5071214;28;20070;-68
2022/01/26 07:25:30;;;;;;;159.88;46.40;;;;;;;;;;5071797;28;20033;-68
2022/01/26 07:27:57;;;;;;;162.50;49.38;;;;;;;;;;5070925;28;20024;-68
2022/01/26 07:30:22;;;;;;;159.43;47.85;;;;;;;;;;5070286;28;20032;-68
2022/01/26 07:32:48;;;;;;;174.70;48.90;;;;;;;;;;5071376;28;20111;-68
2022/01/26 07:35:13;;;;;;;165.45;46.45;;;;;;;;;;5071517;28;20519;-68
2022/01/26 07:37:38;;;;;;;181.25;56.65;;;;;;;;;;5053630;28;20099;-68
2022/01/26 07:40:06;;;;;;;175.43;49.55;;;;;;;;;;5071215;28;20024;-68
2022/01/26 07:42:32;;;;;;;184.60;58.65;;;;;;;;;;5071092;28;20070;-67
2022/01/26 07:44:57;;;;;;;189.52;64.38;;;;;;;;;;5071013;28;20024;-68
2022/01/26 07:47:23;;;;;;;168.55;48.75;;;;;;;;;;5071504;28;20012;-68
2022/01/26 07:49:49;;;;;;;197.45;60.63;;;;;;;;;;5071254;28;20028;-68
2022/01/26 07:52:14;;;;;;;183.82;57.67;;;;;;;;;;5066802;28;20024;-68
2022/01/26 07:54:40;;;;;;;182.55;56.90;;;;;;;;;;5052894;28;20486;-68
2022/01/26 07:57:07;;;;;;;184.20;50.83;;;;;;;;;;5063653;28;20017;-68
2022/01/26 07:59:32;;;;;;;176.68;52.90;;;;;;;;;;5070215;28;20059;-68
2022/01/26 08:01:57;;;;;;;177.32;53.13;;;;;;;;;;5051105;28;20028;-68
2022/01/26 08:04:23;;;;;;;170.35;46.92;;;;;;;;;;5070622;28;20153;-68
2022/01/26 08:06:48;;;;;;;182.30;49.45;;;;;;;;;;5070113;28;20020;-68
2022/01/26 08:09:13;;;;;;;166.00;48.58;;;;;;;;;;5070156;28;20064;-68
2022/01/26 08:11:38;;;;;;;175.93;48.88;;;;;;;;;;5069963;28;20408;-68
2022/01/26 08:14:03;;;;;;;175.82;55.05;;;;;;;;;;5070042;28;20082;-68
2022/01/26 08:16:29;;;;;;;210.70;52.00;;;;;;;;;;5069729;28;20024;-68
2022/01/26 08:18:54;;;;;;;186.77;53.15;;;;;;;;;;5070101;28;20027;-68
2022/01/26 08:21:19;;;;;;;177.10;50.30;;;;;;;;;;5068697;28;20033;-68
2022/01/26 08:23:47;;;;;;;186.32;53.60;;;;;;;;;;5071894;28;20016;-68
2022/01/26 08:26:13;;;;;;;194.00;50.22;;;;;;;;;;5069285;28;20016;-68
2022/01/26 08:28:41;;;;;;;171.02;50.03;;;;;;;;;;5070252;28;20483;-68
2022/01/26 08:31:07;;;;;;;189.60;53.47;;;;;;;;;;5069468;28;20032;-68
2022/01/26 08:33:32;;;;;;;193.13;55.13;;;;;;;;;;5070215;28;20016;-68
2022/01/26 08:35:57;;;;;;;186.57;53.10;;;;;;;;;;5069394;28;20024;-68
2022/01/26 08:38:23;;;;;;;189.05;50.25;;;;;;;;;;5069374;28;20070;-68
2022/01/26 08:40:49;;;;;;;202.32;50.65;;;;;;;;;;5069775;28;20104;-68
2022/01/26 08:43:15;;;;;;;179.25;50.72;;;;;;;;;;5069626;28;20020;-68
2022/01/26 08:45:40;;;;;;;168.93;48.13;;;;;;;;;;5069709;28;20023;-68
2022/01/26 08:48:05;;;;;;;172.32;43.80;;;;;;;;;;5069965;28;20026;-68
2022/01/26 08:50:31;;;;;;;161.40;42.80;;;;;;;;;;5070063;28;20131;-68
2022/01/26 08:52:56;;;;;;;175.65;44.95;;;;;;;;;;5105833;22;20040;-65
2022/01/26 08:55:21;;;;;;;161.18;46.83;;;;;;;;;;5085709;28;20032;-66
2022/01/26 08:57:46;;;;;;;176.82;48.45;;;;;;;;;;5083673;28;20542;-66
2022/01/26 09:00:12;;;;;;;166.63;45.38;;;;;;;;;;5078428;28;20100;-66
2022/01/26 09:02:37;;;;;;;162.90;48.90;;;;;;;;;;5088070;28;20030;-64
2022/01/26 09:05:08;;;;;;;193.35;53.67;;;;;;;;;;5089905;28;20427;-66
2022/01/26 09:07:33;;;;;;;173.32;51.58;;;;;;;;;;5089506;28;20034;-65
2022/01/26 09:10:01;;;;;;;170.55;47.78;;;;;;;;;;5090138;28;20480;-64
2022/01/26 09:12:27;;;;;;;166.50;45.95;;;;;;;;;;5089225;28;20026;-66
2022/01/26 09:14:52;;;;;;;162.57;42.85;;;;;;;;;;5089798;28;20016;-66
2022/01/26 09:17:19;;;;;;;164.57;43.45;;;;;;;;;;5089531;28;20020;-66
2022/01/26 09:19:45;;;;;;;171.80;49.20;;;;;;;;;;5089224;28;20017;-64
2022/01/26 09:22:11;;;;;;;132.68;36.38;;;;;;;;;;5088676;28;20027;-64
2022/01/26 09:24:38;;;;;;;166.82;47.67;;;;;;;;;;5089044;28;20070;-65
2022/01/26 09:27:04;;;;;;;147.95;44.75;;;;;;;;;;5094125;28;20020;-63
2022/01/26 09:29:29;;;;;;;166.45;44.75;;;;;;;;;;5093103;28;20413;-63
2022/01/26 09:31:55;;;;;;;146.25;38.88;;;;;;;;;;5092436;28;20045;-64
2022/01/26 09:34:21;;;;;;;180.75;44.63;;;;;;;;;;5075467;28;20020;-65
2022/01/26 09:36:46;;;;;;;168.05;48.83;;;;;;;;;;5093358;28;20051;-66
2022/01/26 09:39:13;;;;;;;168.65;43.33;;;;;;;;;;5093630;28;20499;-65
2022/01/26 09:41:38;;;;;;;181.82;48.17;;;;;;;;;;5093532;28;20093;-64
2022/01/26 09:44:03;;;;;;;172.18;47.63;;;;;;;;;;5093254;28;20066;-65
2022/01/26 09:46:29;;;;;;;172.88;48.80;;;;;;;;;;5093609;28;20035;-63
2022/01/26 09:48:55;;;;;;;163.38;45.13;;;;;;;;;;5092777;28;20313;-64
2022/01/26 09:51:20;;;;;;;173.90;47.90;;;;;;;;;;5093027;28;20598;-64
2022/01/26 09:53:57;;;;;;;180.10;46.72;;;;;;;;;;5092988;28;20026;-65
2022/01/26 09:56:22;;;;;;;146.05;43.28;;;;;;;;;;5074176;28;20024;-66
2022/01/26 09:58:48;;;;;;;150.50;40.88;;;;;;;;;;5092415;28;20287;-64
2022/01/26 10:01:13;;;;;;;157.32;44.60;;;;;;;;;;5092931;28;20020;-65
2022/01/26 10:03:42;;;;;;;135.40;42.45;;;;;;;;;;5092879;28;20031;-64
2022/01/26 10:06:18;;;;;;;154.27;48.20;;;;;;;;;;5093016;28;20042;-65
2022/01/26 10:18:58;;;;;;;147.13;44.05;;;;;;;;;;5092122;28;20030;-64
2022/01/26 10:21:24;;;;;;;152.98;42.75;;;;;;;;;;5092450;28;20091;-64
2022/01/26 10:23:49;;;;;;;154.13;41.92;;;;;;;;;;5092160;28;20102;-64
2022/01/26 10:26:16;;;;;;;154.85;44.38;;;;;;;;;;5092559;28;20098;-65
2022/01/26 10:28:41;;;;;;;158.20;43.20;;;;;;;;;;5091555;28;20066;-64
2022/01/26 10:31:13;;;;;;;153.50;46.15;;;;;;;;;;5092928;28;20445;-66
2022/01/26 10:33:39;;;;;;;154.45;45.40;;;;;;;;;;5092475;28;20020;-66
2022/01/26 10:36:04;;;;;;;137.90;38.42;;;;;;;;;;5092765;28;20046;-65
2022/01/26 10:38:29;;;;;;;155.15;43.20;;;;;;;;;;5091890;28;20031;-65
2022/01/26 10:40:55;;;;;;;160.05;41.72;;;;;;;;;;5093119;28;20012;-65
2022/01/26 10:43:20;;;;;;;153.93;41.53;;;;;;;;;;5091912;28;20032;-65
2022/01/26 10:45:55;;;;;;;173.82;48.17;;;;;;;;;;5092598;28;20024;-66
2022/01/26 10:51:20;;;;;;;153.68;39.63;;;;;;;;;;5093040;28;20031;-65
2022/01/26 10:53:39;;;;;;;169.50;45.25;;;;;;;;;;5091069;28;20078;-66
2022/01/26 10:56:05;;;;;;;100.45;31.90;;;;;;;;;;5091944;28;20020;-65
2022/01/26 10:58:30;;;;;;;143.35;37.17;;;;;;;;;;5090957;28;20024;-64
2022/01/26 11:00:57;;;;;;;162.82;43.70;;;;;;;;;;5092041;28;20460;-65
2022/01/26 11:03:22;;;;;;;103.57;27.10;;;;;;;;;;5091805;28;20468;-65
2022/01/26 11:05:47;;;;;;;172.65;44.42;;;;;;;;;;5091848;28;20068;-67
2022/01/26 11:08:13;;;;;;;174.02;42.80;;;;;;;;;;5091555;28;20024;-65
2022/01/26 11:10:39;;;;;;;166.57;40.20;;;;;;;;;;5091700;28;20031;-65
2022/01/26 11:13:05;;;;;;;181.07;42.50;;;;;;;;;;5091927;28;20031;-65
2022/01/26 11:15:31;;;;;;;133.80;33.92;;;;;;;;;;5091191;28;20024;-65
2022/01/26 11:18:07;;;;;;;177.88;46.00;;;;;;;;;;5090813;28;20016;-64
2022/01/26 11:20:44;;;;;;;124.97;37.25;;;;;;;;;;5091439;28;20024;-66
2022/01/26 11:23:09;;;;;;;185.18;54.42;;;;;;;;;;5091606;28;20051;-64
2022/01/26 11:25:45;;;;;;;170.52;42.28;;;;;;;;;;5091097;28;20020;-65
2022/01/26 11:28:17;;;;;;;171.80;40.58;;;;;;;;;;5091408;28;20020;-64
2022/01/26 11:30:42;;;;;;;192.05;45.42;;;;;;;;;;5073127;28;20023;-68
2022/01/26 11:33:15;;;;;;;180.50;46.33;;;;;;;;;;5091511;28;20294;-64
2022/01/26 11:35:46;;;;;;;185.18;49.20;;;;;;;;;;5091432;28;20087;-65
2022/01/26 11:46:53;;;;;;;196.43;46.13;;;;;;;;;;5090911;28;20039;-64
2022/01/26 11:49:23;;;;;;;161.60;41.42;;;;;;;;;;5090959;28;20024;-64
2022/01/26 11:51:49;;;;;;;180.20;46.97;;;;;;;;;;5090700;28;20028;-66
2022/01/26 11:54:16;;;;;;;182.40;47.55;;;;;;;;;;5090965;28;20032;-66
2022/01/26 11:56:53;;;;;;;183.20;45.30;;;;;;;;;;5090517;28;20032;-64
2022/01/26 11:59:20;;;;;;;172.93;42.75;;;;;;;;;;5090209;28;20012;-64
2022/01/26 12:01:53;;;;;;;175.10;49.58;;;;;;;;;;5090235;28;20426;-65
2022/01/26 12:04:18;;;;;;;167.18;41.30;;;;;;;;;;5072333;28;20012;-65
2022/01/26 12:06:50;;;;;;;160.23;40.72;;;;;;;;;;5090996;28;20030;-66
2022/01/26 12:09:17;;;;;;;163.52;39.42;;;;;;;;;;5089439;28;20012;-65
2022/01/26 12:11:46;;;;;;;151.63;41.08;;;;;;;;;;5090446;28;20145;-65
2022/01/26 12:14:13;;;;;;;140.25;36.05;;;;;;;;;;5090566;28;20044;-65
2022/01/26 12:16:45;;;;;;;140.77;38.15;;;;;;;;;;5090202;28;20032;-65
2022/01/26 12:35:28;;;;;;;129.85;32.03;;;;;;;;;;5089629;28;20388;-65
2022/01/26 12:43:20;;;;;;;107.20;32.95;;;;;;;;;;5090065;28;20085;-64
2022/01/26 12:45:46;;;;;;;118.22;33.17;;;;;;;;;;5090835;28;20668;-64
2022/01/26 12:48:11;;;;;;;116.55;32.35;;;;;;;;;;5089781;28;20024;-67
2022/01/26 12:50:38;;;;;;;115.63;35.72;;;;;;;;;;5089160;28;20519;-65
2022/01/26 12:53:04;;;;;;;126.70;34.67;;;;;;;;;;5089607;28;20396;-64
2022/01/26 12:55:31;;;;;;;108.57;28.85;;;;;;;;;;5089172;28;20031;-64
2022/01/26 12:57:56;;;;;;;120.60;33.88;;;;;;;;;;5088931;28;20038;-66
2022/01/26 13:00:24;;;;;;;114.03;34.17;;;;;;;;;;5088984;28;20484;-64
2022/01/26 13:02:49;;;;;;;101.80;29.98;;;;;;;;;;5089338;28;20107;-64
2022/01/26 13:05:21;;;;;;;112.55;31.95;;;;;;;;;;5090131;28;20091;-65
2022/01/26 13:07:47;;;;;;;109.18;37.47;;;;;;;;;;5088107;28;20167;-65
2022/01/26 13:10:13;;;;;;;112.25;31.83;;;;;;;;;;5089529;28;20085;-64
2022/01/26 13:12:38;;;;;;;97.70;30.33;;;;;;;;;;5089736;28;20047;-65
2022/01/26 13:15:12;;;;;;;83.82;29.88;;;;;;;;;;5089396;28;20502;-65
2022/01/26 13:17:44;;;;;;;106.63;35.58;;;;;;;;;;5088709;28;20107;-64
2022/01/26 13:30:29;;;;;;;108.85;34.17;;;;;;;;;;5088382;28;20039;-66
2022/01/26 13:35:53;;;;;;;108.47;33.33;;;;;;;;;;5089037;28;20050;-65
2022/01/26 13:51:22;;;;;;;125.37;34.53;;;;;;;;;;5087961;28;20452;-66
2022/01/26 13:56:33;;;;;;;141.20;33.85;;;;;;;;;;5087382;28;20035;-65
2022/01/26 13:59:45;;;;;;;114.95;32.38;;;;;;;;;;5087411;28;20421;-66
2022/01/26 14:01:49;;;;;;;110.13;34.97;;;;;;;;;;5064989;28;20105;-65
2022/01/26 14:04:18;;;;;;;132.95;38.45;;;;;;;;;;5088632;28;20035;-66
2022/01/26 14:06:44;;;;;;;117.18;38.05;;;;;;;;;;5088647;28;20676;-65
2022/01/26 14:09:09;;;;;;;105.45;32.38;;;;;;;;;;5086846;28;20026;-66
2022/01/26 14:11:34;;;;;;;114.32;36.13;;;;;;;;;;5088664;28;20016;-68
2022/01/26 14:14:01;;;;;;;109.90;32.38;;;;;;;;;;5074281;28;20092;-68
2022/01/26 14:16:28;;;;;;;130.75;33.20;;;;;;;;;;5093229;28;20349;-65
2022/01/26 14:19:05;;;;;;;118.95;35.58;;;;;;;;;;5092140;28;20048;-65
2022/01/26 14:24:11;;;;;;;122.57;38.55;;;;;;;;;;5092195;28;20031;-66
2022/01/26 14:26:38;;;;;;;109.20;34.28;;;;;;;;;;5073997;28;20225;-66
2022/01/26 14:29:13;;;;;;;110.43;34.08;;;;;;;;;;5090811;28;20028;-65
2022/01/26 14:31:57;;;;;;;105.15;31.50;;;;;;;;;;5091017;28;20012;-66
2022/01/26 14:39:25;;;;;;;107.37;32.13;;;;;;;;;;5091787;28;20544;-67
2022/01/26 14:55:42;;;;;;;112.10;34.33;;;;;;;;;;5092177;28;20467;-68
2022/01/26 15:08:39;;;;;;;110.93;32.80;;;;;;;;;;5092103;28;20065;-69
2022/01/26 15:19:00;;;;;;;;;;;;;;;;;;5092299;28;20027;-67
2022/01/26 15:21:56;;;;;;;113.50;35.85;;;;;;;;;;5076080;28;20524;-68
2022/01/26 15:42:52;;;;;;;77.03;24.00;;;;;;;;;;5090369;28;20437;-68
2022/01/26 15:53:06;;;;;;;112.32;32.05;;;;;;;;;;5091133;28;20097;-67
2022/01/26 16:06:55;;;;;;;104.55;27.08;;;;;;;;;;5035005;28;20033;-67
2022/01/26 16:19:11;;;;;;;105.63;29.35;;;;;;;;;;5090359;28;20066;-68
2022/01/26 16:20:45;;;;;;;88.15;26.75;;;;;;;;;;5073425;28;20028;-67
2022/01/26 16:44:25;;;;;;;107.13;30.52;;;;;;;;;;5090094;28;20021;-67
2022/01/26 17:34:34;;;;;;;91.07;25.00;;;;;;;;;;5105122;28;20501;-66
2022/01/26 18:16:37;;;;;;;93.85;23.77;;;;;;;;;;5095898;28;20027;-67
2022/01/26 18:51:35;;;;;;;74.88;24.73;;;;;;;;;;5085469;28;20078;-67
2022/01/26 18:54:00;;;;;;;69.60;19.40;;;;;;;;;;5091959;28;20035;-68
2022/01/26 18:56:27;;;;;;;68.35;21.75;;;;;;;;;;5091572;28;20092;-67
2022/01/26 18:58:52;;;;;;;67.78;19.45;;;;;;;;;;5091189;28;20461;-67
2022/01/26 19:01:18;;;;;;;83.33;20.70;;;;;;;;;;5091682;28;20149;-67
2022/01/26 19:03:43;;;;;;;60.67;17.00;;;;;;;;;;5091254;28;20266;-67
2022/01/26 19:06:08;;;;;;;71.55;25.35;;;;;;;;;;5091944;28;20100;-67
2022/01/26 19:08:33;;;;;;;77.83;24.37;;;;;;;;;;5091702;28;20024;-67
2022/01/26 19:10:58;;;;;;;84.63;28.23;;;;;;;;;;5091941;28;20270;-67
2022/01/26 19:13:28;;;;;;;52.83;17.58;;;;;;;;;;5081907;28;20361;-67
2022/01/26 19:15:58;;;;;;;70.43;19.63;;;;;;;;;;5112424;28;20024;-68
2022/01/26 19:18:36;;;;;;;79.63;21.50;;;;;;;;;;5097255;28;20031;-67
2022/01/26 19:21:13;;;;;;;72.43;21.55;;;;;;;;;;5091656;28;20032;-68
2022/01/26 19:24:00;;;;;;;84.28;23.52;;;;;;;;;;5091136;28;20047;-67
2022/01/26 19:26:32;;;;;;;69.47;22.27;;;;;;;;;;5092036;28;20379;-68
2022/01/26 19:29:07;;;;;;;44.55;13.90;;;;;;;;;;5091580;28;20016;-68
2022/01/26 19:40:28;;;;;;;59.00;19.45;;;;;;;;;;5091464;28;20392;-68
2022/01/26 19:50:56;;;;;;;54.10;16.60;;;;;;;;;;5091127;28;20038;-68
2022/01/26 19:53:21;;;;;;;51.38;15.60;;;;;;;;;;5088347;28;20455;-68
2022/01/26 19:55:47;;;;;;;61.90;15.50;;;;;;;;;;5090432;28;20031;-67
2022/01/26 19:58:12;;;;;;;35.80;10.63;;;;;;;;;;5090484;28;20024;-67
2022/01/26 20:00:44;;;;;;;68.35;20.92;;;;;;;;;;5091598;28;20468;-68
2022/01/26 20:03:10;;;;;;;67.47;21.50;;;;;;;;;;5090682;28;20016;-67
2022/01/26 20:05:35;;;;;;;72.07;19.77;;;;;;;;;;5091491;28;20015;-68
2022/01/26 20:08:20;;;;;;;30.48;10.43;;;;;;;;;;5089214;28;20020;-68
2022/01/26 20:10:52;;;;;;;64.28;20.63;;;;;;;;;;5071210;28;20012;-67
2022/01/26 20:13:25;;;;;;;60.15;18.23;;;;;;;;;;5076613;28;20107;-67
2022/01/26 20:15:50;;;;;;;69.00;20.83;;;;;;;;;;5101014;28;20091;-68
2022/01/26 20:18:16;;;;;;;63.33;22.83;;;;;;;;;;5090216;28;20124;-69
2022/01/26 20:20:41;;;;;;;70.97;23.73;;;;;;;;;;5090778;28;20099;-69
2022/01/26 20:23:09;;;;;;;64.68;21.70;;;;;;;;;;5089927;28;20016;-70
2022/01/26 20:25:34;;;;;;;62.22;20.27;;;;;;;;;;5091059;28;20023;-70
2022/01/26 20:28:05;;;;;;;58.45;18.95;;;;;;;;;;5090324;28;20024;-69
2022/01/26 20:30:33;;;;;;;58.08;18.05;;;;;;;;;;5091474;28;20027;-69
2022/01/26 20:32:58;;;;;;;52.78;17.60;;;;;;;;;;5092352;28;20464;-69
2022/01/26 20:35:23;;;;;;;62.25;19.85;;;;;;;;;;5097414;28;20038;-67
2022/01/26 20:37:50;;;;;;;60.63;19.98;;;;;;;;;;5083727;28;20090;-68
2022/01/26 20:40:15;;;;;;;66.45;19.42;;;;;;;;;;5099275;28;20047;-68
2022/01/26 20:42:40;;;;;;;51.30;16.98;;;;;;;;;;5098833;28;20095;-68
2022/01/26 20:45:06;;;;;;;53.38;17.08;;;;;;;;;;5107642;28;20062;-68
2022/01/26 20:47:32;;;;;;;62.05;18.25;;;;;;;;;;5100412;28;20058;-68
2022/01/26 20:49:57;;;;;;;47.22;15.45;;;;;;;;;;5092624;28;20429;-68